Terminal Aerodrome Forecast
Issued by NWS Spokane, WA

Home | Current Version | Previous Version | Text Only | Print | Product List | Glossary On
Versions: 1 2 3 4 5 6 7 8 9 10 11 12 13 14 15 16 17 18 19 20 21 22 23 24 25 26 27 28 29 30 31 32 33 34
000
FTUS46 KOTX 210126 AAA
TAFLWS
TAF AMD
KLWS 210126Z 2101/2124 20006KT P6SM VCSH SCT070 BKN110
     FM210400 VRB04KT P6SM SCT150 BKN250
     FM211200 13005KT P6SM OVC050
     FM211300 08003KT P6SM -RA OVC025
     FM211700 22008KT P6SM VCSH BKN040 OVC060=

USA.gov is the U.S. government's official web portal to all federal, state and local government web resources and services.